Time;durP1;ratioP1;P1;durP2;ratioP2;P2;SDS_P1;SDS_P2;PMS_P1;PMS_P2;Temp;Humidity;BMP_temperature;BMP_pressure;BME280_temperature;BME280_humidity;BME280_pressure;Samples;Min_cycle;Max_cycle;Signal;HPM_P1;HPM_P2
2023/02/10 00:01:24;;;;;;;69.72;47.03;;;;;;;7.36;64.81;103186.41;5075988;28;20037;-63
2023/02/10 00:03:52;;;;;;;74.22;46.65;;;;;;;7.45;65.44;103187.75;5059315;28;20049;-64
2023/02/10 00:06:23;;;;;;;74.63;46.03;;;;;;;7.55;65.25;103190.78;5077395;28;20494;-63
2023/02/10 00:09:01;;;;;;;71.57;46.85;;;;;;;7.47;65.59;103185.63;5076502;28;20101;-63
2023/02/10 00:14:17;;;;;;;70.15;46.03;;;;;;;7.28;66.36;103186.72;5059029;28;20075;-64
2023/02/10 00:16:45;;;;;;;72.20;43.93;;;;;;;7.37;65.96;103191.66;5077344;28;20038;-63
2023/02/10 00:19:12;;;;;;;70.15;44.15;;;;;;;7.35;65.84;103191.06;5076422;28;20052;-63
2023/02/10 00:21:39;;;;;;;66.10;43.00;;;;;;;7.42;66.21;103188.22;5077030;28;20144;-64
2023/02/10 00:24:07;;;;;;;64.25;42.55;;;;;;;7.45;65.72;103191.34;5059722;28;20049;-63
2023/02/10 00:26:34;;;;;;;69.00;43.35;;;;;;;7.37;66.33;103183.44;5077231;28;20056;-64
2023/02/10 00:29:02;;;;;;;68.38;43.20;;;;;;;7.54;66.15;103186.34;5076479;28;20506;-64
2023/02/10 00:31:29;;;;;;;62.92;42.65;;;;;;;7.39;66.46;103184.03;5058552;28;20420;-63
2023/02/10 00:33:56;;;;;;;70.30;44.42;;;;;;;7.55;66.46;103180.63;5076336;28;20052;-63
2023/02/10 00:36:24;;;;;;;66.28;42.30;;;;;;;7.65;65.69;103183.63;5077099;28;20479;-63
2023/02/10 00:38:52;;;;;;;68.40;43.25;;;;;;;7.55;66.00;103182.56;5059613;28;20053;-64
2023/02/10 00:41:21;;;;;;;75.47;43.63;;;;;;;7.47;66.74;103182.88;5075448;28;20048;-63
2023/02/10 00:43:48;;;;;;;65.65;43.83;;;;;;;7.63;66.22;103176.72;5077264;28;20052;-63
2023/02/10 00:46:18;;;;;;;66.03;42.65;;;;;;;7.56;66.36;103176.00;5059051;28;20041;-63
2023/02/10 00:48:46;;;;;;;68.97;43.88;;;;;;;7.56;66.79;103176.00;5077644;28;20048;-63
2023/02/10 00:51:14;;;;;;;64.97;41.72;;;;;;;7.62;66.79;103183.28;5075354;28;20112;-63
2023/02/10 00:53:42;;;;;;;71.03;43.55;;;;;;;7.68;66.65;103174.97;5077189;28;20512;-65
2023/02/10 00:56:11;;;;;;;71.85;43.67;;;;;;;7.57;66.92;103177.66;5042640;28;20053;-64
2023/02/10 00:58:38;;;;;;;65.07;42.28;;;;;;;7.61;67.15;103174.22;5075903;28;20052;-63
2023/02/10 01:01:05;;;;;;;63.85;41.65;;;;;;;7.49;67.28;103173.34;5074379;28;20064;-63
2023/02/10 01:03:33;;;;;;;60.80;40.65;;;;;;;7.41;68.05;103173.66;5042683;28;20515;-63
2023/02/10 01:06:02;;;;;;;63.00;41.20;;;;;;;7.66;67.38;103177.09;5076320;28;20040;-63
2023/02/10 01:08:29;;;;;;;61.78;40.72;;;;;;;7.63;67.26;103176.72;5075456;28;20492;-69
2023/02/10 01:11:08;;;;;;;63.65;41.10;;;;;;;7.66;67.42;103188.06;5074897;28;20040;-63
2023/02/10 01:13:36;;;;;;;61.88;38.97;;;;;;;7.79;67.14;103185.13;5075161;28;20427;-64
2023/02/10 01:16:05;;;;;;;61.72;39.42;;;;;;;7.75;67.00;103186.66;5058394;28;20403;-64
2023/02/10 01:18:32;;;;;;;67.45;39.88;;;;;;;7.71;67.30;103188.19;5075480;28;20048;-64
2023/02/10 01:21:07;;;;;;;66.47;42.78;;;;;;;7.61;67.94;103179.72;5074164;28;20048;-64
2023/02/10 01:23:35;;;;;;;62.92;40.00;;;;;;;7.67;67.13;103191.66;5075135;28;20051;-64
2023/02/10 01:26:03;;;;;;;60.13;37.83;;;;;;;7.68;67.49;103185.94;5074901;28;20055;-63
2023/02/10 01:28:31;;;;;;;60.90;39.10;;;;;;;7.74;67.06;103187.72;5076544;28;20131;-64
2023/02/10 01:31:04;;;;;;;59.80;39.63;;;;;;;7.82;66.55;103189.31;5075823;28;20043;-62
2023/02/10 01:33:32;;;;;;;63.25;41.33;;;;;;;7.85;66.41;103184.19;5075122;28;20064;-64
2023/02/10 01:36:04;;;;;;;63.25;39.95;;;;;;;7.79;66.53;103182.38;5074547;28;20066;-63
2023/02/10 01:38:31;;;;;;;67.97;41.42;;;;;;;7.72;66.44;103189.06;5058605;28;20053;-64
2023/02/10 01:41:03;;;;;;;64.97;40.45;;;;;;;7.89;66.09;103188.13;5074499;28;20052;-64
2023/02/10 01:43:33;;;;;;;59.38;38.95;;;;;;;7.92;65.97;103186.81;5074749;28;20059;-63
2023/02/10 01:46:00;;;;;;;67.72;41.15;;;;;;;7.75;66.53;103194.06;5074266;28;20047;-64
2023/02/10 01:48:28;;;;;;;64.50;40.58;;;;;;;7.71;66.70;103188.19;5076213;28;20052;-64
2023/02/10 01:51:02;;;;;;;65.68;40.92;;;;;;;7.76;66.89;103184.75;5075556;28;20045;-64
2023/02/10 01:53:30;;;;;;;65.50;41.78;;;;;;;7.58;67.33;103185.66;5057847;28;20468;-65
2023/02/10 01:56:01;;;;;;;59.25;39.38;;;;;;;7.54;68.39;103183.63;5057867;28;20040;-64
2023/02/10 01:58:30;;;;;;;60.38;41.08;;;;;;;7.71;68.37;103192.84;5076216;28;20063;-63
2023/02/10 02:00:58;;;;;;;62.97;41.20;;;;;;;7.64;68.82;103195.69;5057609;28;20040;-63
2023/02/10 02:03:26;;;;;;;61.45;41.03;;;;;;;7.60;68.93;103193.66;5057913;28;20044;-63
2023/02/10 02:05:53;;;;;;;63.25;40.78;;;;;;;7.57;69.20;103189.47;5040857;28;20055;-63
2023/02/10 02:08:25;;;;;;;63.85;41.25;;;;;;;7.43;69.92;103192.63;5057605;28;20526;-64
2023/02/10 02:11:11;;;;;;;62.80;42.30;;;;;;;7.47;69.65;103194.69;5075649;28;20517;-64
2023/02/10 02:13:38;;;;;;;65.00;42.83;;;;;;;7.40;70.34;103188.47;5074073;28;20056;-63
2023/02/10 02:16:27;;;;;;;63.72;42.08;;;;;;;7.54;70.22;103184.47;5074854;28;20044;-63
2023/02/10 02:19:01;;;;;;;64.37;42.10;;;;;;;7.48;70.17;103193.59;5058120;28;20055;-63
2023/02/10 02:21:52;;;;;;;66.72;43.45;;;;;;;7.61;70.12;103195.31;5073692;28;20056;-64
2023/02/10 02:24:29;;;;;;;66.88;42.95;;;;;;;7.44;70.77;103188.81;5074115;28;20075;-64
2023/02/10 02:27:45;;;;;;;65.55;42.05;;;;;;;7.52;71.18;103183.84;5073833;28;20044;-63
2023/02/10 02:30:34;;;;;;;61.28;39.30;;;;;;;7.57;70.88;103188.63;5055436;28;20642;-64
2023/02/10 02:33:08;;;;;;;58.67;38.53;;;;;;;7.56;70.49;103187.81;5055126;28;20496;-63
2023/02/10 02:35:42;;;;;;;56.50;38.80;;;;;;;7.58;70.60;103193.06;5040573;28;20504;-64
2023/02/10 02:38:11;;;;;;;61.40;40.10;;;;;;;7.34;71.43;103191.31;5057369;28;20076;-63
2023/02/10 02:40:38;;;;;;;60.03;39.63;;;;;;;7.29;71.33;103182.91;5040938;28;20040;-63
2023/02/10 02:43:05;;;;;;;55.95;37.05;;;;;;;7.32;72.03;103185.19;5053788;28;20059;-63
2023/02/10 02:45:47;;;;;;;55.20;35.40;;;;;;;7.59;71.46;103179.09;5057810;28;20079;-63
2023/02/10 02:48:31;;;;;;;55.15;36.50;;;;;;;7.60;70.87;103178.03;5056438;28;20060;-64
2023/02/10 02:51:07;;;;;;;56.50;35.95;;;;;;;7.65;70.90;103183.63;5043567;28;20503;-63
2023/02/10 02:54:00;;;;;;;52.60;36.15;;;;;;;7.42;71.33;103183.59;5057008;28;20083;-64
2023/02/10 02:56:37;;;;;;;57.05;37.88;;;;;;;7.31;71.52;103191.75;5073450;28;20052;-64
2023/02/10 02:59:41;;;;;;;60.13;38.10;;;;;;;7.43;71.86;103198.09;5074075;28;20431;-64
2023/02/10 03:02:11;;;;;;;61.40;38.97;;;;;;;7.55;71.20;103197.09;5042434;28;20060;-64
2023/02/10 03:04:40;;;;;;;57.72;37.58;;;;;;;7.45;71.63;103196.81;5057426;28;20064;-63
2023/02/10 03:07:07;;;;;;;57.30;37.35;;;;;;;7.61;70.91;103190.69;5073111;28;20083;-64
2023/02/10 03:09:35;;;;;;;58.10;37.60;;;;;;;7.55;70.87;103188.03;5074949;28;20052;-63
2023/02/10 03:12:03;;;;;;;60.25;36.17;;;;;;;7.46;71.43;103187.50;5073222;28;20049;-63
2023/02/10 03:14:30;;;;;;;55.97;35.85;;;;;;;7.56;71.08;103189.72;5073517;28;20049;-63
2023/02/10 03:16:59;;;;;;;54.03;35.05;;;;;;;7.54;70.67;103184.47;5074848;28;20052;-63
2023/02/10 03:19:26;;;;;;;54.10;34.53;;;;;;;7.60;70.87;103183.50;5073574;28;20060;-63
2023/02/10 03:21:53;;;;;;;50.80;33.25;;;;;;;7.58;70.85;103184.81;5056668;28;20060;-64
2023/02/10 03:24:21;;;;;;;53.60;34.35;;;;;;;7.64;70.84;103187.47;5075368;28;20041;-63
2023/02/10 03:26:48;;;;;;;52.25;32.30;;;;;;;7.55;71.12;103199.00;5071597;28;20052;-64
2023/02/10 03:29:16;;;;;;;47.97;31.48;;;;;;;7.61;70.48;103209.88;5078796;28;20048;-62
2023/02/10 03:31:43;;;;;;;51.60;32.60;;;;;;;7.37;70.84;103199.06;5059252;28;20048;-62
2023/02/10 03:34:10;;;;;;;54.50;31.77;;;;;;;7.51;71.15;103201.38;5078330;28;20056;-63
2023/02/10 03:36:38;;;;;;;45.95;28.67;;;;;;;7.68;70.17;103196.91;5078098;28;20055;-63
2023/02/10 03:39:05;;;;;;;43.00;27.02;;;;;;;7.64;69.52;103192.94;5078528;28;20044;-64
2023/02/10 03:41:33;;;;;;;45.67;30.63;;;;;;;7.51;70.31;103186.81;5076439;28;20059;-64
2023/02/10 03:44:00;;;;;;;48.50;27.90;;;;;;;7.60;70.47;103185.44;5078580;28;20056;-64
2023/02/10 03:46:27;;;;;;;44.83;28.25;;;;;;;7.73;69.65;103193.44;5059106;28;20531;-64
2023/02/10 03:48:55;;;;;;;42.90;26.38;;;;;;;7.69;69.78;103194.97;5076910;28;20075;-62
2023/02/10 03:51:22;;;;;;;45.50;26.17;;;;;;;7.76;68.88;103188.34;5078046;28;20407;-63
2023/02/10 03:53:49;;;;;;;44.13;27.17;;;;;;;7.65;69.70;103196.53;5077079;28;20059;-62
2023/02/10 03:56:17;;;;;;;42.20;25.20;;;;;;;7.80;69.37;103203.25;5077783;28;20123;-63
2023/02/10 03:58:44;;;;;;;35.88;23.23;;;;;;;8.04;68.44;103204.13;5077934;28;20063;-63
2023/02/10 04:01:13;;;;;;;43.15;24.42;;;;;;;7.89;67.78;103196.38;5077277;28;20040;-62
2023/02/10 04:03:41;;;;;;;42.90;28.50;;;;;;;7.84;67.95;103193.50;5076706;28;20076;-63
2023/02/10 04:06:09;;;;;;;47.38;30.35;;;;;;;7.67;68.57;103197.16;5076810;28;20040;-64
2023/02/10 04:08:37;;;;;;;47.95;30.40;;;;;;;7.68;68.66;103196.91;5076459;28;20059;-63
2023/02/10 04:11:04;;;;;;;46.63;31.80;;;;;;;7.59;68.97;103191.97;5076005;28;20040;-63
2023/02/10 04:13:31;;;;;;;50.50;31.88;;;;;;;7.62;68.73;103196.97;5060342;28;20064;-63
2023/02/10 04:16:11;;;;;;;51.70;33.08;;;;;;;7.69;68.78;103197.72;5077215;28;20041;-63
2023/02/10 04:18:39;;;;;;;52.17;34.33;;;;;;;7.73;68.48;103190.72;5077657;28;20420;-63
2023/02/10 04:21:08;;;;;;;50.75;32.17;;;;;;;7.55;68.86;103205.31;5042733;28;20045;-64
2023/02/10 04:23:36;;;;;;;54.25;34.58;;;;;;;7.78;68.62;103199.06;5059866;28;20052;-62
2023/02/10 04:26:04;;;;;;;60.17;38.08;;;;;;;7.63;68.19;103198.69;5077046;28;20648;-64
2023/02/10 04:28:31;;;;;;;59.33;38.88;;;;;;;7.63;68.47;103198.69;5076144;28;20056;-63
2023/02/10 04:30:59;;;;;;;63.85;40.33;;;;;;;7.14;70.33;103204.41;5076803;28;20048;-63
2023/02/10 04:33:27;;;;;;;60.03;39.05;;;;;;;7.42;70.04;103208.25;5077656;28;20059;-63
2023/02/10 04:35:55;;;;;;;63.35;39.22;;;;;;;7.47;69.55;103215.78;5075809;28;20055;-64
2023/02/10 04:38:23;;;;;;;58.55;36.28;;;;;;;7.51;69.02;103225.22;5075420;28;20060;-64
2023/02/10 04:40:50;;;;;;;55.03;35.45;;;;;;;7.34;69.83;103218.72;5059186;28;20052;-63
2023/02/10 04:43:18;;;;;;;53.60;34.90;;;;;;;7.20;70.02;103225.44;5059306;28;20048;-63
2023/02/10 04:45:46;;;;;;;61.92;35.63;;;;;;;7.42;69.62;103227.44;5076754;28;20071;-62
2023/02/10 04:48:14;;;;;;;55.08;33.95;;;;;;;7.23;69.92;103220.31;5077203;28;20045;-62
2023/02/10 04:50:42;;;;;;;49.47;33.50;;;;;;;7.41;69.86;103233.97;5075515;28;20040;-62
2023/02/10 04:53:09;;;;;;;51.25;32.72;;;;;;;7.41;69.39;103228.50;5076915;28;20063;-64
2023/02/10 04:55:37;;;;;;;52.22;32.20;;;;;;;7.37;69.31;103223.72;5074319;28;21222;-63
2023/02/10 04:58:04;;;;;;;49.65;31.10;;;;;;;7.30;69.70;103237.53;5076325;28;20045;-63
2023/02/10 05:00:31;;;;;;;44.90;30.15;;;;;;;7.41;69.29;103242.22;5056984;28;20055;-63
2023/02/10 05:02:59;;;;;;;45.25;30.48;;;;;;;7.19;69.71;103234.69;5075499;28;20048;-63
2023/02/10 05:05:27;;;;;;;45.15;29.20;;;;;;;7.35;69.48;103223.97;5075524;28;20072;-64
2023/02/10 05:07:55;;;;;;;45.17;30.35;;;;;;;7.55;68.68;103229.19;5076750;28;20064;-62
2023/02/10 05:10:22;;;;;;;41.78;27.83;;;;;;;7.52;68.61;103229.63;5074953;28;20063;-63
2023/02/10 05:12:50;;;;;;;45.03;27.38;;;;;;;7.54;68.67;103232.97;5076824;28;20063;-64
2023/02/10 05:15:18;;;;;;;39.08;26.75;;;;;;;7.49;68.12;103233.69;5076229;28;20056;-64
2023/02/10 05:17:45;;;;;;;39.78;27.55;;;;;;;7.37;68.89;103237.44;5076712;28;20056;-64
2023/02/10 05:20:13;;;;;;;41.70;25.77;;;;;;;7.53;68.14;103236.81;5076538;28;20052;-64
2023/02/10 05:22:40;;;;;;;39.28;25.48;;;;;;;7.54;68.04;103236.56;5074164;28;20060;-63
2023/02/10 05:25:08;;;;;;;36.80;23.98;;;;;;;7.58;67.78;103237.75;5074939;28;20052;-66
2023/02/10 05:27:36;;;;;;;38.42;23.58;;;;;;;7.40;67.63;103243.28;5075808;28;20055;-63
2023/02/10 05:30:06;;;;;;;34.78;21.92;;;;;;;7.62;67.26;103230.75;5076328;28;20056;-63
2023/02/10 05:32:33;;;;;;;;;;;;;;;7.54;66.82;103236.56;5042176;28;20048;-63
2023/02/10 05:35:00;;;;;;;39.30;22.60;;;;;;;7.54;66.73;103243.94;5076138;28;20309;-62
2023/02/10 05:37:27;;;;;;;33.67;21.77;;;;;;;7.58;66.73;103245.16;5075735;28;20056;-63
2023/02/10 05:39:55;;;;;;;35.28;22.23;;;;;;;7.65;66.66;103240.44;5076272;28;20056;-62
2023/02/10 05:42:23;;;;;;;37.40;21.70;;;;;;;7.59;66.27;103235.84;5057871;28;20044;-63
2023/02/10 05:44:50;;;;;;;30.70;21.25;;;;;;;7.49;66.66;103238.31;5075719;28;20056;-63
2023/02/10 05:47:17;;;;;;;35.67;21.80;;;;;;;7.55;66.90;103249.19;5058171;28;20052;-63
2023/02/10 05:49:45;;;;;;;38.75;21.95;;;;;;;7.35;66.84;103248.63;5074845;28;20055;-63
2023/02/10 05:52:12;;;;;;;35.90;21.20;;;;;;;7.42;66.68;103252.13;5075677;28;20052;-63
2023/02/10 05:54:40;;;;;;;36.15;21.10;;;;;;;7.46;66.76;103247.03;5074251;28;20056;-64
2023/02/10 05:57:07;;;;;;;28.13;19.30;;;;;;;7.50;66.55;103257.28;5074248;28;20049;-63
2023/02/10 05:59:34;;;;;;;37.03;20.73;;;;;;;7.43;66.07;103270.25;5074674;28;20063;-64
2023/02/10 06:02:02;;;;;;;29.60;19.42;;;;;;;7.30;66.59;103270.44;5057387;28;20068;-64
2023/02/10 06:04:29;;;;;;;32.55;19.38;;;;;;;7.48;66.17;103273.13;5057460;28;20048;-63
2023/02/10 06:06:56;;;;;;;36.28;19.38;;;;;;;7.59;66.12;103261.38;5074914;28;20063;-62
2023/02/10 06:09:25;;;;;;;30.13;18.50;;;;;;;7.68;65.63;103261.91;5075406;28;20059;-64
2023/02/10 06:11:53;;;;;;;31.10;19.23;;;;;;;7.77;64.93;103260.50;5074317;28;20044;-63
2023/02/10 06:14:20;;;;;;;30.60;20.08;;;;;;;7.52;65.68;103263.38;5074243;28;20052;-63
2023/02/10 06:16:48;;;;;;;33.85;19.67;;;;;;;7.53;65.66;103266.97;5075156;28;20052;-63
2023/02/10 06:19:15;;;;;;;29.05;18.92;;;;;;;7.57;66.03;103268.16;5075154;28;20045;-64
2023/02/10 06:21:46;;;;;;;31.02;19.58;;;;;;;7.66;65.41;103261.28;5075257;28;20420;-65
2023/02/10 06:24:14;;;;;;;27.50;18.70;;;;;;;7.61;65.54;103266.63;5075486;28;20056;-64
2023/02/10 06:26:41;;;;;;;34.95;21.50;;;;;;;7.52;65.67;103268.03;5073797;28;20067;-64
2023/02/10 06:29:09;;;;;;;34.05;21.33;;;;;;;7.50;65.53;103271.00;5075397;28;20056;-63
2023/02/10 06:31:36;;;;;;;40.42;22.92;;;;;;;7.52;66.09;103260.63;5073761;28;20045;-63
2023/02/10 06:34:05;;;;;;;36.38;22.50;;;;;;;7.64;65.78;103264.25;5074123;28;20058;-63
2023/02/10 06:36:32;;;;;;;34.60;21.42;;;;;;;7.63;65.63;103259.00;5074754;28;20049;-63
2023/02/10 06:38:59;;;;;;;38.13;21.42;;;;;;;7.69;65.49;103258.91;5075343;28;20045;-63
2023/02/10 06:41:27;;;;;;;38.30;21.85;;;;;;;7.80;65.10;103262.78;5073500;28;20496;-63
2023/02/10 06:43:54;;;;;;;37.20;22.02;;;;;;;7.64;65.79;103267.00;5072605;28;20051;-64
2023/02/10 06:46:22;;;;;;;39.85;22.92;;;;;;;7.46;66.11;103272.50;5070825;28;20049;-64
2023/02/10 06:48:49;;;;;;;41.85;23.83;;;;;;;7.46;66.30;103275.25;5056823;28;20049;-62
2023/02/10 06:51:17;;;;;;;41.05;24.25;;;;;;;7.63;65.86;103272.72;5067542;28;20060;-64
2023/02/10 06:53:45;;;;;;;44.33;24.65;;;;;;;7.46;66.21;103275.25;5075003;28;20399;-64
2023/02/10 06:56:12;;;;;;;40.15;25.38;;;;;;;7.52;66.59;103268.88;5073422;28;20060;-63
2023/02/10 06:58:40;;;;;;;41.17;25.58;;;;;;;7.58;66.49;103267.09;5074245;28;20053;-64
2023/02/10 07:01:09;;;;;;;43.72;25.25;;;;;;;7.53;66.09;103265.03;5060258;28;20052;-63
2023/02/10 07:03:36;;;;;;;40.70;26.00;;;;;;;7.55;66.36;103264.84;5077786;28;20063;-63
2023/02/10 07:06:04;;;;;;;39.05;24.20;;;;;;;7.71;65.68;103270.50;5076927;28;20052;-64
2023/02/10 07:08:32;;;;;;;37.63;24.13;;;;;;;7.80;65.39;103271.84;5061147;28;20052;-63
2023/02/10 07:10:59;;;;;;;47.92;24.38;;;;;;;7.76;65.74;103270.63;5076404;28;20040;-64
2023/02/10 07:13:26;;;;;;;38.25;24.17;;;;;;;7.89;65.33;103269.63;5063427;28;20045;-68
2023/02/10 07:15:54;;;;;;;35.33;24.40;;;;;;;7.93;65.13;103288.13;5068055;28;20054;-67
2023/02/10 07:18:21;;;;;;;36.90;23.25;;;;;;;7.79;65.38;103278.38;5074705;28;20048;-68
2023/02/10 07:20:49;;;;;;;36.83;23.25;;;;;;;7.93;65.01;103282.63;5057679;28;20055;-66
2023/02/10 07:23:23;;;;;;;36.80;23.17;;;;;;;7.90;65.18;103285.84;5060700;28;20048;-68
2023/02/10 07:26:17;;;;;;;;;;;;;;;7.76;65.66;103284.34;5067430;28;20055;-67
2023/02/10 07:28:45;;;;;;;40.83;21.83;;;;;;;7.73;66.00;103295.81;5078490;28;19939;-67
2023/02/10 07:31:12;;;;;;;35.13;21.92;;;;;;;7.81;65.56;103303.69;5074018;28;20049;-64
2023/02/10 07:33:40;;;;;;;36.03;21.83;;;;;;;7.78;65.18;103290.44;5057020;28;20530;-64
2023/02/10 07:36:08;;;;;;;43.40;21.67;;;;;;;7.96;65.21;103300.53;5069089;28;20144;-64
2023/02/10 07:38:37;;;;;;;36.10;20.60;;;;;;;7.80;65.01;103298.44;5053511;28;20510;-64
2023/02/10 07:41:06;;;;;;;46.25;20.17;;;;;;;7.78;64.93;103308.81;5046092;28;20048;-65
2023/02/10 07:43:33;;;;;;;33.95;19.25;;;;;;;7.65;65.11;103311.75;5056937;28;20044;-67
2023/02/10 07:46:06;;;;;;;33.17;18.02;;;;;;;7.56;65.47;103307.63;5065422;28;20048;-64
2023/02/10 07:48:34;;;;;;;28.90;18.48;;;;;;;7.64;64.46;103307.31;5069915;28;20055;-68
2023/02/10 07:51:01;;;;;;;37.97;17.85;;;;;;;8.00;64.36;103310.00;5057191;28;20067;-68
2023/02/10 07:53:29;;;;;;;41.67;22.08;;;;;;;8.20;63.52;103316.00;5068087;28;20409;-68
2023/02/10 07:55:59;;;;;;;43.38;21.13;;;;;;;7.87;64.40;103315.66;5065420;28;20040;-68
2023/02/10 07:58:27;;;;;;;41.83;20.73;;;;;;;7.81;64.19;103308.38;5066294;28;20049;-69
2023/02/10 08:00:54;;;;;;;34.20;20.10;;;;;;;7.94;65.15;103306.28;5075262;28;20048;-69
2023/02/10 08:03:22;;;;;;;37.50;21.70;;;;;;;7.90;64.09;103323.41;5075587;28;20071;-68
2023/02/10 08:05:49;;;;;;;34.83;21.80;;;;;;;7.75;64.42;103333.97;5055426;28;20053;-65
2023/02/10 08:08:17;;;;;;;39.47;21.25;;;;;;;7.71;64.45;103340.97;5077033;28;20052;-66
2023/02/10 08:10:44;;;;;;;32.42;20.90;;;;;;;7.99;63.92;103344.81;5074375;28;20051;-65
2023/02/10 08:13:12;;;;;;;35.55;21.40;;;;;;;7.95;63.67;103331.78;5070207;28;20051;-66
2023/02/10 08:15:40;;;;;;;35.10;21.08;;;;;;;7.86;63.89;103339.50;5065863;28;20040;-65
2023/02/10 08:18:07;;;;;;;45.47;19.40;;;;;;;7.93;63.47;103334.75;5074562;28;20045;-66
2023/02/10 08:20:34;;;;;;;36.80;20.75;;;;;;;7.83;63.62;103341.88;5063082;28;21478;-66
2023/02/10 08:23:02;;;;;;;35.35;19.33;;;;;;;7.88;63.35;103342.00;5079575;28;20032;-66
2023/02/10 08:25:29;;;;;;;33.75;18.02;;;;;;;8.02;63.26;103337.19;5056909;28;20052;-65
2023/02/10 08:27:56;;;;;;;40.05;17.23;;;;;;;7.99;62.97;103339.34;5048577;28;20048;-66
2023/02/10 08:30:24;;;;;;;32.75;17.17;;;;;;;8.04;62.51;103340.56;5071449;28;20052;-67
2023/02/10 08:32:52;;;;;;;33.38;17.63;;;;;;;8.15;62.25;103340.59;5048751;28;20052;-67
2023/02/10 08:35:19;;;;;;;32.42;16.67;;;;;;;8.27;62.03;103349.72;5073303;28;20119;-67
2023/02/10 08:37:46;;;;;;;34.03;16.65;;;;;;;8.10;61.57;103353.34;5074955;28;20063;-67
2023/02/10 08:40:14;;;;;;;28.20;16.55;;;;;;;8.09;62.05;103351.66;5063759;28;20053;-65
2023/02/10 08:42:41;;;;;;;35.78;15.85;;;;;;;8.02;61.79;103350.94;5073150;28;20045;-65
2023/02/10 08:45:09;;;;;;;34.67;15.07;;;;;;;8.00;61.86;103357.47;5069094;28;20052;-65
2023/02/10 08:47:37;;;;;;;33.90;16.00;;;;;;;8.14;61.37;103363.63;5068205;28;20523;-64
2023/02/10 08:50:08;;;;;;;33.58;14.95;;;;;;;8.21;61.04;103355.28;5068886;28;20056;-66
2023/02/10 08:52:35;;;;;;;33.55;14.63;;;;;;;8.18;61.06;103363.97;5074539;28;20424;-67
2023/02/10 08:55:04;;;;;;;36.63;13.93;;;;;;;8.14;60.66;103360.88;5071838;28;20089;-67
2023/02/10 08:57:31;;;;;;;33.30;16.50;;;;;;;8.26;60.65;103345.31;5072407;28;20060;-67
2023/02/10 09:00:02;;;;;;;38.03;20.38;;;;;;;8.37;60.48;103344.50;5066796;28;20048;-64
2023/02/10 09:02:30;;;;;;;39.83;15.30;;;;;;;8.10;60.91;103342.34;5070657;28;20471;-66
2023/02/10 09:04:58;;;;;;;23.08;13.88;;;;;;;8.36;60.46;103347.47;5033346;28;20049;-65
2023/02/10 09:07:38;;;;;;;23.33;13.80;;;;;;;8.33;60.24;103365.28;5037984;28;20060;-67
2023/02/10 09:10:09;;;;;;;23.63;13.85;;;;;;;8.42;59.76;103363.84;5067742;28;20455;-67
2023/02/10 09:12:41;;;;;;;27.20;14.00;;;;;;;8.33;60.16;103359.78;5069839;28;20044;-66
2023/02/10 09:15:09;;;;;;;28.25;13.50;;;;;;;8.36;60.11;103352.97;5052673;28;20048;-67
2023/02/10 09:17:40;;;;;;;26.90;14.30;;;;;;;8.44;59.46;103353.47;5074365;28;20045;-67
2023/02/10 09:20:07;;;;;;;26.20;14.27;;;;;;;8.50;59.43;103355.28;5051203;28;20060;-66
2023/02/10 09:22:35;;;;;;;26.70;13.98;;;;;;;8.49;59.25;103350.03;5066406;28;20048;-68
2023/02/10 09:25:02;;;;;;;26.08;13.82;;;;;;;8.55;59.28;103343.59;5068175;28;20059;-66
2023/02/10 09:27:30;;;;;;;29.15;15.57;;;;;;;8.59;59.00;103345.63;5069306;28;20057;-66
2023/02/10 09:30:00;;;;;;;;;;;;;;;8.50;59.29;103346.19;5056415;28;20052;-66
2023/02/10 09:32:27;;;;;;;31.23;14.63;;;;;;;8.63;59.00;103348.75;5053595;28;19920;-66
2023/02/10 09:34:55;;;;;;;29.83;14.20;;;;;;;8.67;58.83;103350.78;5075276;28;20052;-66
2023/02/10 09:37:22;;;;;;;28.13;14.93;;;;;;;8.90;58.32;103349.97;5073811;28;20044;-67
2023/02/10 09:39:50;;;;;;;29.77;14.80;;;;;;;8.79;58.47;103348.03;5061961;28;20045;-66
2023/02/10 09:42:50;;;;;;;34.08;15.38;;;;;;;8.80;58.86;103349.72;5055348;28;20056;-65
2023/02/10 09:45:25;;;;;;;25.77;15.35;;;;;;;8.93;58.10;103346.72;5066718;28;20045;-66
2023/02/10 09:48:22;;;;;;;29.27;15.73;;;;;;;8.90;58.53;103363.72;5070945;28;20044;-66
2023/02/10 09:50:56;;;;;;;32.92;15.32;;;;;;;8.87;58.23;103356.75;5061339;28;20052;-65
2023/02/10 09:53:27;;;;;;;27.15;14.13;;;;;;;8.88;57.82;103358.44;5065100;28;20055;-66
2023/02/10 09:56:02;;;;;;;34.13;15.07;;;;;;;8.83;58.27;103357.47;5072239;28;20045;-66
2023/02/10 09:58:34;;;;;;;29.67;14.85;;;;;;;9.06;57.64;103355.59;5068721;28;20053;-66
2023/02/10 10:01:11;;;;;;;30.45;15.18;;;;;;;9.16;57.36;103365.13;5064186;28;21547;-67
2023/02/10 10:04:06;;;;;;;29.52;14.75;;;;;;;9.08;57.38;103371.84;5043720;28;20041;-67
2023/02/10 10:06:37;;;;;;;45.33;20.60;;;;;;;8.94;57.99;103364.91;5036155;28;20064;-67
2023/02/10 10:09:09;;;;;;;33.08;14.65;;;;;;;9.10;57.70;103366.94;5070120;28;20048;-66
2023/02/10 10:11:43;;;;;;;28.75;15.02;;;;;;;9.15;57.62;103367.06;5067569;28;20052;-68
2023/02/10 10:14:26;;;;;;;28.65;15.40;;;;;;;9.36;57.66;103369.22;5017784;28;20055;-67
2023/02/10 10:17:15;;;;;;;26.17;15.18;;;;;;;9.56;56.81;103368.81;5068314;28;20422;-66
2023/02/10 10:19:54;;;;;;;42.90;16.80;;;;;;;9.46;57.37;103363.09;5051007;28;20075;-67
2023/02/10 10:22:46;;;;;;;33.67;14.25;;;;;;;9.46;57.21;103374.09;5067296;28;20040;-68
2023/02/10 10:25:28;;;;;;;32.60;16.02;;;;;;;9.36;57.49;103368.38;5087434;28;20059;-67
2023/02/10 10:28:18;;;;;;;42.85;17.00;;;;;;;9.63;57.52;103366.75;5072065;28;20051;-68
2023/02/10 10:30:52;;;;;;;29.27;15.33;;;;;;;9.66;56.93;103369.03;5067908;28;20074;-68
2023/02/10 10:33:38;;;;;;;34.20;19.33;;;;;;;9.83;56.58;103375.44;5067596;28;20155;-67
2023/02/10 10:36:14;;;;;;;31.55;15.68;;;;;;;9.89;56.40;103374.47;5054093;28;20075;-66
2023/02/10 10:38:53;;;;;;;27.98;14.68;;;;;;;9.59;56.90;103376.59;5054468;28;20067;-67
2023/02/10 10:41:25;;;;;;;31.03;15.73;;;;;;;9.56;57.88;103375.16;5068414;28;20059;-67
2023/02/10 10:43:54;;;;;;;28.88;14.25;;;;;;;9.76;57.03;103383.81;5054619;28;20048;-65
2023/02/10 10:46:33;;;;;;;30.93;14.47;;;;;;;9.84;56.72;103377.13;5066871;28;20033;-67
2023/02/10 10:49:00;;;;;;;21.63;14.65;;;;;;;9.65;56.96;103376.44;5068737;28;20049;-66
2023/02/10 10:51:28;;;;;;;30.05;15.15;;;;;;;9.85;57.05;103382.38;5069722;28;20049;-66
2023/02/10 10:53:57;;;;;;;30.67;16.85;;;;;;;10.01;56.49;103381.59;5061696;28;20419;-66
2023/02/10 10:56:35;;;;;;;36.20;16.83;;;;;;;9.88;56.72;103389.31;5065148;28;20059;-66
2023/02/10 10:59:29;;;;;;;25.20;15.65;;;;;;;9.75;57.08;103382.16;5072381;28;20053;-66
2023/02/10 11:01:56;;;;;;;25.08;15.52;;;;;;;10.01;56.71;103378.00;5050944;28;20416;-66
2023/02/10 11:04:27;;;;;;;33.33;15.07;;;;;;;9.76;57.22;103377.50;5051547;28;20045;-65
2023/02/10 11:06:59;;;;;;;31.50;14.95;;;;;;;9.85;57.99;103373.31;5070150;28;20051;-67
2023/02/10 11:09:32;;;;;;;32.22;15.85;;;;;;;9.71;58.71;103361.69;5050659;28;20061;-68
2023/02/10 11:12:11;;;;;;;30.02;15.25;;;;;;;9.68;59.21;103353.94;5067944;28;20048;-66
2023/02/10 11:14:42;;;;;;;33.97;15.18;;;;;;;9.85;59.11;103356.78;5066009;28;20047;-66
2023/02/10 11:17:39;;;;;;;28.77;16.10;;;;;;;9.70;59.67;103348.19;5039710;28;20056;-67
2023/02/10 11:20:12;;;;;;;32.25;15.45;;;;;;;9.94;59.43;103347.88;5067590;28;20116;-68
2023/02/10 11:22:42;;;;;;;32.42;15.95;;;;;;;10.00;59.64;103348.81;5065303;28;20067;-68
2023/02/10 11:25:27;;;;;;;31.98;15.98;;;;;;;10.10;59.35;103338.03;5060961;28;20049;-68
2023/02/10 11:27:56;;;;;;;45.83;19.17;;;;;;;10.42;59.13;103335.56;5063929;28;20060;-68
2023/02/10 11:30:34;;;;;;;77.63;37.40;;;;;;;10.45;59.16;103333.16;5064709;28;20440;-67
2023/02/10 11:33:06;;;;;;;99.25;49.25;;;;;;;10.48;59.16;103331.84;5069517;28;20052;-67
2023/02/10 11:35:34;;;;;;;87.57;44.22;;;;;;;10.28;59.67;103326.81;5068890;28;20044;-66